< < Back
Terminal Aerodrome Forecast


Current Version              Previous Versions:   1  2  3  4  5  6  7  8  9  

Terminal Aerodrome Forecast

863
FTUS42 KCHS 302204 AAA
TAFSAV
TAF AMD
KSAV 302204Z 3022/3118 18010KT P6SM SCT060
     FM310000 21005KT P6SM FEW080 SCT250=

Latest METAR

670
SAUS80 KWBC 310100
MTRSAV
METAR KSAV 310053Z 18009KT 10SM TS SCT070CB BKN120 31/23 A3000 RMK AO2
TSB52 SLP159 OCNL LTGICCA NW TS NW MOV E T03060233


USA.gov is the U.S. government's official web portal to all federal, state and local government web resources and services.